Parc national de Yellowstone, WY (82190)

17:29 MDT le 16 septembre 2014 (GMT -0600)
RAWS GREBE WY US | Change Station
CLOSE
Current Station
Stations météorologiques personnelles
Location: Yellowstone National Park, WY
Altitude: 7899 ft
Stations météo à proximité

Alt. 7899 ft 44.72 °N, 110.51 °W | Updated 40 minutes ago

Nuageux
Nuageux
64 ° F
Paraît 64 ° F
N
4
Vent Variable Vent de OSO
Gusts 11.0 mph

Aujourd'hui
Haut(e) -- | Bas -- ° F
--% Risque de précip.
Hier
Haut(e) -- | Bas -- ° F
Precip. -- pouce
7:01 AM 7:30 PM
Dernier quartier, 41% visible
Pression 30.17 pouce
Visibilité 10.0 Miles terrestres
Nuages Nuageux 9000 ft
Point de rosée 34 ° F
Humidité 33%
Précipitations 0.00 pouce
Profondeur de la couche neigeuse 0 in , 2 in , 0 in
UV 1 sur 12
Pollen 6.30 sur 12
Qualité de l'air Non disponible.
Flu Activity Non disponible.
METAR KWYS 162310Z AUTO 33003KT 10SM BKN090 23/01 A3017 RMK AO2

More Conditions Fewer Conditions

Pression 30.17 pouce
Visibilité 10.0 Miles terrestres
Nuages Nuageux 9000 ft
Point de rosée 34 ° F
Humidité 33%
Précipitations 0.00 pouce
Profondeur de la couche neigeuse 0 in , 2 in , 0 in
UV 1 sur 12
Pollen 6.30 sur 12
Qualité de l'air Non disponible.
Flu Activity Non disponible.
METAR KWYS 162310Z AUTO 33003KT 10SM BKN090 23/01 A3017 RMK AO2

More Conditions Fewer Conditions

10-Day Weather Forecast

Almanac

Astronomie

Sep. 16, 2014 Lever Coucher
Temps réel 07:01 MDT 19:30 MDT
Crépuscule civil 06:32 MDT 19:59 MDT
Crépuscule nautique 05:57 MDT 20:34 MDT
Crépuscule astronomique 05:21 MDT 21:10 MDT
Lune 00:03 MDT 15:07 MDT
Durée de lumière visible 13h 27m
Longueur du jour
12h 28m
Tomorrow will be 3m 5s shorter.
Dernier quartier, 41% of the Moon is Illuminated
Aujourd'hui
Dernier quartier
Sep 24
Nouveau
Oct 1
Premier quartier
Oct 8
Pleine lune
Oct 15
Dernier quartier

Extrêmes aujourd'hui

State Highs State Lows

Community

WunderPhotos

Upload Photos

1,753,912 Photos téléchargées !

Nearby

Épaisseur de neige

Station Depth Altitude
Cinnabar Park 0 in 9690 ft
Willow Creek 2 in 8450 ft
Sylvan Road 0 in 7120 ft
Salt River Summit 0 in 7600 ft
Phillips Bench 0 in 8200 ft

Activité sismique

Ville Distance Mag. Time & Date
No recent earthquake activity has been reported nearby.
Minimum magnitude displayed is 2.5.

Températures des eaux côtières

Lieu Température
Aucun rapport de station

Stations météo à proximité